»·PEaware :: 22806 L52-KSBP

22806 :: L52-KSBP

FLIGHT INFORMATION

Flight Status: Arrived
Operator: Unknown
More flights by this operator :: More flights under this callsign
Pilot: Frank H. (3300)
Aircraft: DORNIER 228
(D228)
More flights by this aircraft type
Origin: L52 Oceano Co
United States
Destination: KSBP San Luis Co Regl
United States
More flights between these airports :: More routes between these airports
Route: +
File this flight plan on PilotEdge
Remarks:
Altitude:
(Current/Filed)
0ft
Speed:
(Current/Filed)
0kts
Departed: 19-Nov-17 11:41 AM
Arrived: 19-Nov-17 12:43 PM
Distance/Time
Traveled:
8nm/1:02
Distance/Time
To Go:
Arrived

Flight Plot

Page will automatically refresh every two minutes.


Map Options




Map Legend


Flown Route
Filed Route
Departure Airport
Arrival Airport
Navaid (VOR, NDB)
Fix

Horizontal Profiles

Position Reports

Time Latitude Longitude Heading Altitude Ground
Speed
19-Nov-17 11:45 35.196323 -120.565333 304 1698ft 174kts
19-Nov-17 11:46 35.221358 -120.615298 304 1658ft 174kts
19-Nov-17 11:47 34.943958 -119.690784 202 2155ft 0kts
19-Nov-17 11:48 34.943958 -119.690784 202 2155ft 0kts
19-Nov-17 11:49 34.943958 -119.690784 202 2155ft 0kts
19-Nov-17 11:50 34.943958 -119.690784 202 2155ft 0kts
19-Nov-17 11:51 34.943958 -119.690784 202 2155ft 0kts
19-Nov-17 11:52 34.943958 -119.690784 202 2155ft 0kts
19-Nov-17 11:53 34.943958 -119.690784 202 2155ft 0kts
19-Nov-17 11:54 34.943958 -119.690784 202 2155ft 0kts
19-Nov-17 11:55 34.943958 -119.690784 202 2155ft 0kts
19-Nov-17 11:56 34.943958 -119.690784 202 2155ft 0kts
19-Nov-17 11:57 34.943958 -119.690784 202 2155ft 0kts
19-Nov-17 11:58 34.943958 -119.690784 202 2155ft 0kts
19-Nov-17 11:59 34.943958 -119.690784 202 2155ft 0kts
19-Nov-17 12:00 34.943958 -119.690784 202 2155ft 0kts
19-Nov-17 12:01 34.943958 -119.690784 202 2155ft 0kts
19-Nov-17 12:02 34.943958 -119.690784 202 2155ft 0kts
19-Nov-17 12:03 34.943958 -119.690784 202 2155ft 0kts
19-Nov-17 12:04 34.943958 -119.690784 202 2155ft 0kts
19-Nov-17 12:05 34.943958 -119.690784 202 2155ft 0kts
19-Nov-17 12:06 34.943958 -119.690784 202 2155ft 0kts
19-Nov-17 12:07 34.943958 -119.690784 202 2155ft 0kts
19-Nov-17 12:08 34.943958 -119.690784 202 2155ft 0kts
19-Nov-17 12:09 34.943958 -119.690784 202 2155ft 0kts
19-Nov-17 12:10 34.943958 -119.690784 202 2155ft 0kts
19-Nov-17 12:11 34.943958 -119.690784 202 2155ft 0kts
19-Nov-17 12:12 34.943958 -119.690784 202 2155ft 0kts
19-Nov-17 12:13 34.943958 -119.690784 202 2155ft 0kts
19-Nov-17 12:14 34.943958 -119.690784 202 2155ft 0kts
19-Nov-17 12:15 34.943958 -119.690784 202 2155ft 0kts
19-Nov-17 12:16 34.943958 -119.690784 202 2155ft 0kts
19-Nov-17 12:17 34.943204 -119.691010 196 2156ft 0kts
19-Nov-17 12:18 34.943204 -119.691010 196 2156ft 0kts
19-Nov-17 12:19 34.943204 -119.691010 196 2156ft 0kts
19-Nov-17 12:20 34.943204 -119.691010 196 2156ft 0kts
19-Nov-17 12:21 34.941887 -119.690257 116 2160ft 13kts
19-Nov-17 12:22 34.938710 -119.682413 116 2191ft 31kts
19-Nov-17 12:23 34.937839 -119.680414 294 2200ft 0kts
19-Nov-17 12:24 34.944301 -119.698165 292 2686ft 159kts
19-Nov-17 12:25 34.964814 -119.754751 293 4373ft 190kts
19-Nov-17 12:26 34.986360 -119.813351 293 5967ft 190kts
19-Nov-17 12:27 35.009549 -119.875601 294 6531ft 220kts
19-Nov-17 12:28 35.035270 -119.944979 295 6529ft 227kts
19-Nov-17 12:29 35.060973 -120.015063 294 6525ft 221kts
19-Nov-17 12:30 35.084584 -120.080583 294 6527ft 206kts
19-Nov-17 12:31 35.107383 -120.144558 294 6529ft 204kts
19-Nov-17 12:32 35.092760 -120.208398 243 6524ft 208kts
19-Nov-17 12:33 35.065032 -120.271993 243 5808ft 209kts
19-Nov-17 12:34 35.039998 -120.332523 259 4967ft 196kts
19-Nov-17 12:35 35.061328 -120.390597 310 4170ft 194kts
19-Nov-17 12:36 35.094645 -120.437397 310 3419ft 194kts
19-Nov-17 12:37 35.130171 -120.487301 310 2704ft 190kts
19-Nov-17 12:38 35.164953 -120.530849 347 2926ft 170kts
19-Nov-17 12:39 35.170082 -120.477214 104 2479ft 189kts
19-Nov-17 12:40 35.137605 -120.448192 181 2867ft 166kts
19-Nov-17 12:41 35.091462 -120.447303 171 3464ft 164kts
19-Nov-17 12:42 35.112524 -120.434468 337 4230ft 163kts
19-Nov-17 12:43 35.145242 -120.464025 304 4933ft 145kts
19-Nov-17 12:44 35.171046 -120.509318 303 3950ft 174kts
19-Nov-17 12:45 35.187590 -120.547540 297 3606ft 119kts
19-Nov-17 12:46 35.204194 -120.583242 301 2198ft 118kts
19-Nov-17 12:47 35.222262 -120.614577 303 972ft 113kts
19-Nov-17 12:48 35.236816 -120.639818 331 193ft 27kts
19-Nov-17 12:49 35.237263 -120.639922 10 192ft 0kts
19-Nov-17 12:50 35.237449 -120.639048 128 196ft 23kts
19-Nov-17 12:51 35.235290 -120.634998 119 212ft 8kts
19-Nov-17 12:52 35.235424 -120.634881 281 212ft 0kts
19-Nov-17 12:53 35.235424 -120.634881 281 212ft 0kts
19-Nov-17 12:54 35.235424 -120.634881 281 212ft 0kts
19-Nov-17 12:55 35.235424 -120.634881 281 212ft 0kts
19-Nov-17 12:56 35.235424 -120.634881 281 212ft 0kts
19-Nov-17 12:57 35.235424 -120.634881 281 212ft 0kts
19-Nov-17 12:58 35.235424 -120.634881 281 212ft 0kts
19-Nov-17 12:59 35.235424 -120.634881 281 212ft 0kts
19-Nov-17 13:00 35.235424 -120.634881 281 212ft 0kts
19-Nov-17 13:01 35.235424 -120.634881 281 212ft 0kts
19-Nov-17 13:02 35.235424 -120.634881 281 212ft 0kts

Navigation Log

Ident Type
Flight plan parsing failed, navigation log unavailable